Time;durP1;ratioP1;P1;durP2;ratioP2;P2;SDS_P1;SDS_P2;PMS_P1;PMS_P2;Temp;Humidity;BMP_temperature;BMP_pressure;BME280_temperature;BME280_humidity;BME280_pressure;Samples;Min_cycle;Max_cycle;Signal;HPM_P1;HPM_P2
2023/07/03 00:00:26;;;;;;;;;;;;;;;;;;4984845;28;19922;-89
2023/07/03 00:02:52;;;;;;;;;;;;;;;;;;4982611;28;19942;-89
2023/07/03 00:05:19;;;;;;;;;;;;;;;;;;4999325;28;20328;-90
2023/07/03 00:07:49;;;;;;;;;;;;;;;;;;4983741;28;19921;-89
2023/07/03 00:10:15;;;;;;;;;;;;;;;;;;4983639;28;19929;-89
2023/07/03 00:12:41;;;;;;;;;;;;;;;;;;4982881;28;19921;-88
2023/07/03 00:15:07;;;;;;;;;;;;;;;;;;4999729;28;19929;-88
2023/07/03 00:17:33;;;;;;;;;;;;;;;;;;4983552;28;19926;-89
2023/07/03 00:19:59;;;;;;;;;;;;;;;;;;4983886;28;19913;-87
2023/07/03 00:22:25;;;;;;;;;;;;;;;;;;4981513;28;19989;-87
2023/07/03 00:24:52;;;;;;;;;;;;;;;;;;4997968;28;19998;-89
2023/07/03 00:27:23;;;;;;;;;;;;;;;;;;4984081;28;19905;-87
2023/07/03 00:29:49;;;;;;;;;;;;;;;;;;4983329;28;19922;-85
2023/07/03 00:32:18;;;;;;;;;;;;;;;;;;4983191;28;19918;-89
2023/07/03 00:34:45;;;;;;;;;;;;;;;;;;4983623;28;19926;-89
2023/07/03 00:37:11;;;;;;;;;;;;;;;;;;4999326;28;19921;-89
2023/07/03 00:39:40;;;;;;;;;;;;;;;;;;4983414;28;19917;-88
2023/07/03 00:42:14;;;;;;;;;;;;;;;;;;4998593;28;19930;-88
2023/07/03 00:44:41;;;;;;;;;;;;;;;;;;4999932;28;19913;-87
2023/07/03 00:47:07;;;;;;;;;;;;;;;;;;4983566;28;19945;-90
2023/07/03 00:49:34;;;;;;;;;;;;;;;;;;4982701;28;19909;-88
2023/07/03 00:52:00;;;;;;;;;;;;;;;;;;4978175;28;19906;-89
2023/07/03 00:54:26;;;;;;;;;;;;;;;;;;4964442;28;19926;-89
2023/07/03 00:59:47;;;;;;;;;;;;;;;;;;4980555;28;19910;-88
2023/07/03 01:02:14;;;;;;;;;;;;;;;;;;4964158;28;19965;-89
2023/07/03 01:04:41;;;;;;;;;;;;;;;;;;4991004;28;19910;-89
2023/07/03 01:07:10;;;;;;;;;;;;;;;;;;4984083;28;19922;-89
2023/07/03 01:09:36;;;;;;;;;;;;;;;;;;4982870;28;19913;-88
2023/07/03 01:12:02;;;;;;;;;;;;;;;;;;4983397;28;19922;-91
2023/07/03 01:14:29;;;;;;;;;;;;;;;;;;4982677;28;19906;-89
2023/07/03 01:16:56;;;;;;;;;;;;;;;;;;4984077;28;19949;-88
2023/07/03 01:19:29;;;;;;;;;;;;;;;;;;4982442;28;19905;-87
2023/07/03 01:22:07;;;;;;;;;;;;;;;;;;4998483;28;19989;-89
2023/07/03 01:24:33;;;;;;;;;;;;;;;;;;4983759;28;19926;-89
2023/07/03 01:26:59;;;;;;;;;;;;;;;;;;4983150;28;19949;-87
2023/07/03 01:29:34;;;;;;;;;;;;;;;;;;5000669;28;19922;-87
2023/07/03 01:32:03;;;;;;;;;;;;;;;;;;4982881;28;19913;-88
2023/07/03 01:34:32;;;;;;;;;;;;;;;;;;4984453;28;19917;-90
2023/07/03 01:37:01;;;;;;;;;;;;;;;;;;5000007;28;19926;-88
2023/07/03 01:39:28;;;;;;;;;;;;;;;;;;4999914;28;19933;-88
2023/07/03 01:42:00;;;;;;;;;;;;;;;;;;4998983;28;19981;-88
2023/07/03 01:44:35;;;;;;;;;;;;;;;;;;5001285;28;19910;-90
2023/07/03 01:47:01;;;;;;;;;;;;;;;;;;4997712;28;19910;-89
2023/07/03 01:49:30;;;;;;;;;;;;;;;;;;4983068;28;19933;-89
2023/07/03 01:51:59;;;;;;;;;;;;;;;;;;4982502;28;19957;-89
2023/07/03 01:54:27;;;;;;;;;;;;;;;;;;4999239;28;19910;-91
2023/07/03 01:56:53;;;;;;;;;;;;;;;;;;4982472;28;19936;-90
2023/07/03 01:59:24;;;;;;;;;;;;;;;;;;4999865;28;19909;-89
2023/07/03 02:01:51;;;;;;;;;;;;;;;;;;4999021;28;20001;-89
2023/07/03 02:04:18;;;;;;;;;;;;;;;;;;4984231;28;19917;-89
2023/07/03 02:06:46;;;;;;;;;;;;;;;;;;4998456;28;19906;-89
2023/07/03 02:09:13;;;;;;;;;;;;;;;;;;4984502;28;19941;-89
2023/07/03 02:11:40;;;;;;;;;;;;;;;;;;4982066;28;19925;-88
2023/07/03 02:14:09;;;;;;;;;;;;;;;;;;4998023;28;19925;-89
2023/07/03 02:16:35;;;;;;;;;;;;;;;;;;4983295;28;19922;-90
2023/07/03 02:19:03;;;;;;;;;;;;;;;;;;4983043;28;19926;-87
2023/07/03 02:21:29;;;;;;;;;;;;;;;;;;4983048;28;19909;-87
2023/07/03 02:23:55;;;;;;;;;;;;;;;;;;4982220;28;19921;-87
2023/07/03 02:26:22;;;;;;;;;;;;;;;;;;4998933;28;19922;-86
2023/07/03 02:28:54;;;;;;;;;;;;;;;;;;4997919;28;19929;-88
2023/07/03 02:31:20;;;;;;;;;;;;;;;;;;5015395;28;19962;-89
2023/07/03 02:33:48;;;;;;;;;;;;;;;;;;4985236;28;19906;-89
2023/07/03 02:36:15;;;;;;;;;;;;;;;;;;5000349;28;19983;-89
2023/07/03 02:38:45;;;;;;;;;;;;;;;;;;5019322;28;19913;-89
2023/07/03 02:41:11;;;;;;;;;;;;;;;;;;5001436;28;19928;-88
2023/07/03 02:43:37;;;;;;;;;;;;;;;;;;4984425;28;19926;-88
2023/07/03 02:46:08;;;;;;;;;;;;;;;;;;4985999;28;19912;-90
2023/07/03 02:48:35;;;;;;;;;;;;;;;;;;5002319;28;19933;-88
2023/07/03 02:51:01;;;;;;;;;;;;;;;;;;5002817;28;19906;-89
2023/07/03 02:53:30;;;;;;;;;;;;;;;;;;4985070;28;19953;-88
2023/07/03 02:55:56;;;;;;;;;;;;;;;;;;5002091;28;19926;-88
2023/07/03 02:58:22;;;;;;;;;;;;;;;;;;5001579;28;19929;-90
2023/07/03 03:00:57;;;;;;;;;;;;;;;;;;4988003;28;19951;-91
2023/07/03 03:03:24;;;;;;;;;;;;;;;;;;4986068;28;19922;-89
2023/07/03 03:05:50;;;;;;;;;;;;;;;;;;4986855;28;19961;-89
2023/07/03 03:08:18;;;;;;;;;;;;;;;;;;4986581;28;19973;-86
2023/07/03 03:11:05;;;;;;;;;;;;;;;;;;5018970;28;19908;-90
2023/07/03 03:13:31;;;;;;;;;;;;;;;;;;4985364;28;19949;-88
2023/07/03 03:16:00;;;;;;;;;;;;;;;;;;4985484;28;19922;-89
2023/07/03 03:18:29;;;;;;;;;;;;;;;;;;4986893;28;19913;-87
2023/07/03 03:20:55;;;;;;;;;;;;;;;;;;5002480;28;19933;-89
2023/07/03 03:23:31;;;;;;;;;;;;;;;;;;4986467;28;19981;-88
2023/07/03 03:25:58;;;;;;;;;;;;;;;;;;4985985;28;19932;-89
2023/07/03 03:28:27;;;;;;;;;;;;;;;;;;4986313;28;19998;-88
2023/07/03 03:30:59;;;;;;;;;;;;;;;;;;5001852;28;19933;-91
2023/07/03 03:33:37;;;;;;;;;;;;;;;;;;4985605;28;19928;-89
2023/07/03 03:36:03;;;;;;;;;;;;;;;;;;4985248;28;19933;-89
2023/07/03 03:38:29;;;;;;;;;;;;;;;;;;4986068;28;19926;-88
2023/07/03 03:40:58;;;;;;;;;;;;;;;;;;4985446;28;19929;-91
2023/07/03 03:43:25;;;;;;;;;;;;;;;;;;4985515;28;19920;-89
2023/07/03 03:45:51;;;;;;;;;;;;;;;;;;4984117;28;19926;-89
2023/07/03 03:48:17;;;;;;;;;;;;;;;;;;4985453;28;19922;-90
2023/07/03 03:50:44;;;;;;;;;;;;;;;;;;4985619;28;19978;-88
2023/07/03 03:53:10;;;;;;;;;;;;;;;;;;4985512;28;19926;-88
2023/07/03 03:55:37;;;;;;;;;;;;;;;;;;4984384;28;19932;-88
2023/07/03 03:58:05;;;;;;;;;;;;;;;;;;4985388;28;19925;-88
2023/07/03 04:00:40;;;;;;;;;;;;;;;;;;5001455;28;19949;-91
2023/07/03 04:03:06;;;;;;;;;;;;;;;;;;4986330;28;19909;-89
2023/07/03 04:05:32;;;;;;;;;;;;;;;;;;4985606;28;19906;-89
2023/07/03 04:07:58;;;;;;;;;;;;;;;;;;4985917;28;19906;-89
2023/07/03 04:10:26;;;;;;;;;;;;;;;;;;4985677;28;19964;-89
2023/07/03 04:13:02;;;;;;;;;;;;;;;;;;4999812;28;19921;-88
2023/07/03 04:15:29;;;;;;;;;;;;;;;;;;5001513;28;19906;-89
2023/07/03 04:17:58;;;;;;;;;;;;;;;;;;5002077;28;20009;-89
2023/07/03 04:20:25;;;;;;;;;;;;;;;;;;5000473;28;19930;-89
2023/07/03 04:22:57;;;;;;;;;;;;;;;;;;5001001;28;19932;-88
2023/07/03 04:25:25;;;;;;;;;;;;;;;;;;4985082;28;19975;-89
2023/07/03 04:27:51;;;;;;;;;;;;;;;;;;5002187;28;19925;-88
2023/07/03 04:30:20;;;;;;;;;;;;;;;;;;5000764;28;19932;-87
2023/07/03 04:32:58;;;;;;;;;;;;;;;;;;4985809;28;19933;-88
2023/07/03 04:35:28;;;;;;;;;;;;;;;;;;4996943;28;19925;-84
2023/07/03 04:38:01;;;;;;;;;;;;;;;;;;5014271;28;19928;-84
2023/07/03 04:40:27;;;;;;;;;;;;;;;;;;4981306;28;19921;-83
2023/07/03 04:42:53;;;;;;;;;;;;;;;;;;4983656;28;20024;-89
2023/07/03 04:45:26;;;;;;;;;;;;;;;;;;5018289;28;20005;-89
2023/07/03 04:47:53;;;;;;;;;;;;;;;;;;4984575;28;19910;-90
2023/07/03 04:50:24;;;;;;;;;;;;;;;;;;4984513;28;19925;-90
2023/07/03 04:52:54;;;;;;;;;;;;;;;;;;5017390;28;19922;-91
2023/07/03 04:55:25;;;;;;;;;;;;;;;;;;4984620;28;19961;-92
2023/07/03 04:57:54;;;;;;;;;;;;;;;;;;4985297;28;19906;-90
2023/07/03 05:00:20;;;;;;;;;;;;;;;;;;4984078;28;19909;-90
2023/07/03 05:02:46;;;;;;;;;;;;;;;;;;4985065;28;19928;-89
2023/07/03 05:05:12;;;;;;;;;;;;;;;;;;4984413;28;20017;-88
2023/07/03 05:07:41;;;;;;;;;;;;;;;;;;4984790;28;19913;-88
2023/07/03 05:10:08;;;;;;;;;;;;;;;;;;4998902;28;19960;-89
2023/07/03 05:12:34;;;;;;;;;;;;;;;;;;4998984;28;20354;-88
2023/07/03 05:15:03;;;;;;;;;;;;;;;;;;4984233;28;19925;-90
2023/07/03 05:17:38;;;;;;;;;;;;;;;;;;5002922;28;19915;-91
2023/07/03 05:20:06;;;;;;;;;;;;;;;;;;4983862;28;19933;-89
2023/07/03 05:22:44;;;;;;;;;;;;;;;;;;5002323;28;19926;-90
2023/07/03 05:25:13;;;;;;;;;;;;;;;;;;4984620;28;19910;-90
2023/07/03 05:27:43;;;;;;;;;;;;;;;;;;5000778;28;19918;-89
2023/07/03 05:30:12;;;;;;;;;;;;;;;;;;4984961;28;19928;-91
2023/07/03 05:32:50;;;;;;;;;;;;;;;;;;4985604;28;19910;-89
2023/07/03 05:35:22;;;;;;;;;;;;;;;;;;5014679;28;19926;-90
2023/07/03 05:37:52;;;;;;;;;;;;;;;;;;5000480;28;19922;-91
2023/07/03 05:40:22;;;;;;;;;;;;;;;;;;5001179;28;19910;-88
2023/07/03 05:42:48;;;;;;;;;;;;;;;;;;4984568;28;19926;-92
2023/07/03 05:45:14;;;;;;;;;;;;;;;;;;4999392;28;20005;-90
2023/07/03 05:47:43;;;;;;;;;;;;;;;;;;5000965;28;19981;-93
2023/07/03 05:50:09;;;;;;;;;;;;;;;;;;4984642;28;19989;-91
2023/07/03 05:52:36;;;;;;;;;;;;;;;;;;4983571;28;19925;-89
2023/07/03 05:55:02;;;;;;;;;;;;;;;;;;4983598;28;19977;-91
2023/07/03 05:57:29;;;;;;;;;;;;;;;;;;5077969;23;19923;-89
2023/07/03 05:59:59;;;;;;;;;;;;;;;;;;5019304;28;19909;-92
2023/07/03 06:02:25;;;;;;;;;;;;;;;;;;5002700;28;19926;-93
2023/07/03 06:04:58;;;;;;;;;;;;;;;;;;5003357;28;19990;-89
2023/07/03 06:07:30;;;;;;;;;;;;;;;;;;5019984;28;19906;-89
2023/07/03 06:09:59;;;;;;;;;;;;;;;;;;5023002;28;19922;-89
2023/07/03 06:12:29;;;;;;;;;;;;;;;;;;5007563;28;19910;-88
2023/07/03 06:14:55;;;;;;;;;;;;;;;;;;5006111;28;19925;-88
2023/07/03 06:17:22;;;;;;;;;;;;;;;;;;5006374;28;19909;-89
2023/07/03 06:19:48;;;;;;;;;;;;;;;;;;5004312;28;19921;-90
2023/07/03 06:22:17;;;;;;;;;;;;;;;;;;5021869;28;19965;-89
2023/07/03 06:24:46;;;;;;;;;;;;;;;;;;4995165;28;19998;-90
2023/07/03 06:27:12;;;;;;;;;;;;;;;;;;5004828;28;19913;-92
2023/07/03 06:29:38;;;;;;;;;;;;;;;;;;5003556;28;20080;-89
2023/07/03 06:32:07;;;;;;;;;;;;;;;;;;5005368;28;19921;-90
2023/07/03 06:34:33;;;;;;;;;;;;;;;;;;5005099;28;19964;-92
2023/07/03 06:37:05;;;;;;;;;;;;;;;;;;5022329;28;19929;-90
2023/07/03 06:39:34;;;;;;;;;;;;;;;;;;5005253;28;19933;-90
2023/07/03 06:42:03;;;;;;;;;;;;;;;;;;5004706;28;19930;-89
2023/07/03 06:44:29;;;;;;;;;;;;;;;;;;5003793;28;19929;-88
2023/07/03 06:47:04;;;;;;;;;;;;;;;;;;5022825;28;19921;-89
2023/07/03 06:49:34;;;;;;;;;;;;;;;;;;5021946;28;19929;-88
2023/07/03 06:52:02;;;;;;;;;;;;;;;;;;5002213;28;19972;-91
2023/07/03 06:59:40;;;;;;;;;;;;;;;;;;5586924;23;19916;-93
2023/07/03 07:12:38;;;;;;;;;;;;;;;;;;5055732;28;19909;-90
2023/07/03 07:15:05;;;;;;;;;;;;;;;;;;5042256;28;19909;-90
2023/07/03 07:20:06;;;;;;;;;;;;;;;;;;5491657;22;19985;-90
2023/07/03 07:22:33;;;;;;;;;;;;;;;;;;5023277;28;19929;-90
2023/07/03 07:28:07;;;;;;;;;;;;;;;;;;5064630;28;19912;-88
2023/07/03 07:33:22;;;;;;;;;;;;;;;;;;5040559;28;19929;-92
2023/07/03 07:35:48;;;;;;;;;;;;;;;;;;5039021;28;19943;-91
2023/07/03 07:38:14;;;;;;;;;;;;;;;;;;5023257;28;19937;-91
2023/07/03 07:40:43;;;;;;;;;;;;;;;;;;5040575;28;19912;-90
2023/07/03 07:43:09;;;;;;;;;;;;;;;;;;5024073;28;19925;-91
2023/07/03 07:45:38;;;;;;;;;;;;;;;;;;5039579;28;19985;-90
2023/07/03 07:48:13;;;;;;;;;;;;;;;;;;5021402;28;20013;-92
2023/07/03 07:50:39;;;;;;;;;;;;;;;;;;5012087;28;20016;-92
2023/07/03 07:53:05;;;;;;;;;;;;;;;;;;5024952;28;19924;-90
2023/07/03 07:55:34;;;;;;;;;;;;;;;;;;5024528;28;19909;-94
2023/07/03 07:58:02;;;;;;;;;;;;;;;;;;5024384;28;19909;-91
2023/07/03 08:00:31;;;;;;;;;;;;;;;;;;5024180;28;19932;-90
2023/07/03 08:03:01;;;;;;;;;;;;;;;;;;5033636;28;19985;-91
2023/07/03 08:05:27;;;;;;;;;;;;;;;;;;5020123;28;19925;-92
2023/07/03 08:07:53;;;;;;;;;;;;;;;;;;5004838;28;19910;-90
2023/07/03 08:10:24;;;;;;;;;;;;;;;;;;5021111;28;19937;-94
2023/07/03 08:12:53;;;;;;;;;;;;;;;;;;5023553;28;19936;-94
2023/07/03 08:15:22;;;;;;;;;;;;;;;;;;5039932;28;19925;-95
2023/07/03 08:17:48;;;;;;;;;;;;;;;;;;5024667;28;19953;-94
2023/07/03 08:20:14;;;;;;;;;;;;;;;;;;5069520;23;19909;-91
2023/07/03 08:22:41;;;;;;;;;;;;;;;;;;5040409;28;19916;-92
2023/07/03 08:25:17;;;;;;;;;;;;;;;;;;5043090;28;19915;-92
2023/07/03 08:28:00;;;;;;;;;;;;;;;;;;5025077;28;19919;-95
2023/07/03 08:30:30;;;;;;;;;;;;;;;;;;5024433;28;19939;-94
2023/07/03 08:56:40;;;;;;;;;;;;;;;;;;5371706;22;19932;-92
2023/07/03 08:59:14;;;;;;;;;;;;;;;;;;5041796;28;19925;-92
2023/07/03 09:02:07;;;;;;;;;;;;;;;;;;5044371;28;20497;-92
2023/07/03 11:40:29;;;;;;;;;;;;;;;;;;5036666;28;19909;-88
2023/07/03 11:43:07;;;;;;;;;;;;;;;;;;5033088;28;19926;-86
2023/07/03 11:45:33;;;;;;;;;;;;;;;;;;5016737;28;20005;-85
2023/07/03 11:47:59;;;;;;;;;;;;;;;;;;5015277;28;19921;-86
2023/07/03 11:50:25;;;;;;;;;;;;;;;;;;5015588;28;19944;-84
2023/07/03 11:52:51;;;;;;;;;;;;;;;;;;5016392;28;19931;-85
2023/07/03 11:55:21;;;;;;;;;;;;;;;;;;5016126;28;20267;-84
2023/07/03 11:57:56;;;;;;;;;;;;;;;;;;5032833;28;19976;-85
2023/07/03 12:00:26;;;;;;;;;;;;;;;;;;5033174;28;19985;-84
2023/07/03 12:02:53;;;;;;;;;;;;;;;;;;5031933;28;19932;-86
2023/07/03 12:05:19;;;;;;;;;;;;;;;;;;5015707;28;19921;-87
2023/07/03 12:07:52;;;;;;;;;;;;;;;;;;5032462;28;19926;-87
2023/07/03 12:10:18;;;;;;;;;;;;;;;;;;5034584;28;19929;-86
2023/07/03 12:12:50;;;;;;;;;;;;;;;;;;5032691;28;19921;-86
2023/07/03 12:15:19;;;;;;;;;;;;;;;;;;5015543;28;19921;-84
2023/07/03 12:17:45;;;;;;;;;;;;;;;;;;5016590;28;19922;-84
2023/07/03 12:20:11;;;;;;;;;;;;;;;;;;5015762;28;19922;-86
2023/07/03 12:22:38;;;;;;;;;;;;;;;;;;5015913;28;19951;-84
2023/07/03 12:25:06;;;;;;;;;;;;;;;;;;5032045;28;19928;-86
2023/07/03 12:27:38;;;;;;;;;;;;;;;;;;5015687;28;19921;-86
2023/07/03 12:30:05;;;;;;;;;;;;;;;;;;5014756;28;19928;-87
2023/07/03 12:32:41;;;;;;;;;;;;;;;;;;5016436;28;20439;-84
2023/07/03 12:35:08;;;;;;;;;;;;;;;;;;5022638;28;19921;-85
2023/07/03 12:37:34;;;;;;;;;;;;;;;;;;5016017;28;19921;-83
2023/07/03 12:40:00;;;;;;;;;;;;;;;;;;5015896;28;19986;-84
2023/07/03 12:42:28;;;;;;;;;;;;;;;;;;5031659;28;19933;-84
2023/07/03 12:44:55;;;;;;;;;;;;;;;;;;5034180;28;20001;-82
2023/07/03 12:47:21;;;;;;;;;;;;;;;;;;5033161;28;19906;-84
2023/07/03 12:49:48;;;;;;;;;;;;;;;;;;5031934;28;19926;-85
2023/07/03 12:52:14;;;;;;;;;;;;;;;;;;5015950;28;19928;-82
2023/07/03 12:54:41;;;;;;;;;;;;;;;;;;5015460;28;19944;-84
2023/07/03 12:57:09;;;;;;;;;;;;;;;;;;5030059;28;19922;-86
2023/07/03 13:02:39;;;;;;;;;;;;;;;;;;5031905;28;19913;-86
2023/07/03 13:05:13;;;;;;;;;;;;;;;;;;5013841;28;19928;-85
2023/07/03 13:07:39;;;;;;;;;;;;;;;;;;5032983;28;19905;-86
2023/07/03 13:10:05;;;;;;;;;;;;;;;;;;5032989;28;19936;-87
2023/07/03 13:12:35;;;;;;;;;;;;;;;;;;5014454;28;19928;-84
2023/07/03 13:15:07;;;;;;;;;;;;;;;;;;5014363;28;19922;-84
2023/07/03 13:17:34;;;;;;;;;;;;;;;;;;5032169;28;19921;-86
2023/07/03 13:20:00;;;;;;;;;;;;;;;;;;5032563;28;19961;-86
2023/07/03 13:22:32;;;;;;;;;;;;;;;;;;5016295;28;19948;-86
2023/07/03 13:24:58;;;;;;;;;;;;;;;;;;5030379;28;19959;-84
2023/07/03 13:27:30;;;;;;;;;;;;;;;;;;5020563;28;19909;-94
2023/07/03 13:32:47;;;;;;;;;;;;;;;;;;5391105;23;19925;-92
2023/07/03 13:43:01;;;;;;;;;;;;;;;;;;5664936;23;19928;-95
2023/07/03 13:48:06;;;;;;;;;;;;;;;;;;5514631;23;19933;-93
2023/07/03 14:08:44;;;;;;;;;;;;;;;;;;5386721;23;19917;-92
2023/07/03 14:11:14;;;;;;;;;;;;;;;;;;5056816;23;20779;-92
2023/07/03 14:13:55;;;;;;;;;;;;;;;;;;5060008;28;20386;-94
2023/07/03 14:21:35;;;;;;;;;;;;;;;;;;5293505;23;19908;-92
2023/07/03 15:57:29;;;;;;;;;;;;;;;;;;5055051;28;19932;-93
2023/07/03 15:59:55;;;;;;;;;;;;;;;;;;5042045;28;19926;-92
2023/07/03 16:02:22;;;;;;;;;;;;;;;;;;5041647;28;19925;-94
2023/07/03 16:05:00;;;;;;;;;;;;;;;;;;5307851;23;19909;-92
2023/07/03 16:07:45;;;;;;;;;;;;;;;;;;5058573;28;19940;-91
2023/07/03 16:23:24;;;;;;;;;;;;;;;;;;5037151;28;19917;-95
2023/07/03 16:25:51;;;;;;;;;;;;;;;;;;5015502;28;19940;-95
2023/07/03 16:28:23;;;;;;;;;;;;;;;;;;5579673;23;19925;-93
2023/07/03 16:31:01;;;;;;;;;;;;;;;;;;5060873;28;19943;-91
2023/07/03 16:33:34;;;;;;;;;;;;;;;;;;5059235;28;20000;-93
2023/07/03 16:36:00;;;;;;;;;;;;;;;;;;5043176;28;19925;-92
2023/07/03 16:38:38;;;;;;;;;;;;;;;;;;5061837;28;19929;-93
2023/07/03 20:14:32;;;;;;;;;;;;;;;;;;5021497;28;19932;-87
2023/07/03 20:20:22;;;;;;;;;;;;;;;;;;5025704;28;19968;-89
2023/07/03 20:22:51;;;;;;;;;;;;;;;;;;4999625;28;20407;-87
2023/07/03 20:28:22;;;;;;;;;;;;;;;;;;5038468;28;19924;-90
2023/07/03 20:46:33;;;;;;;;;;;;;;;;;;6022439;23;19959;-87
2023/07/03 20:59:56;;;;;;;;;;;;;;;;;;5043274;28;19925;-88
2023/07/03 21:02:41;;;;;;;;;;;;;;;;;;5041092;28;19925;-87
2023/07/03 21:05:09;;;;;;;;;;;;;;;;;;5041270;23;19925;-88
2023/07/03 21:07:41;;;;;;;;;;;;;;;;;;5057300;28;19909;-88
2023/07/03 21:15:24;;;;;;;;;;;;;;;;;;4997446;28;19930;-88
2023/07/03 21:17:58;;;;;;;;;;;;;;;;;;4982059;28;19917;-87
2023/07/03 21:20:24;;;;;;;;;;;;;;;;;;4995673;28;19980;-91
2023/07/03 21:22:50;;;;;;;;;;;;;;;;;;4981551;28;19910;-90
2023/07/03 21:25:35;;;;;;;;;;;;;;;;;;5250453;22;19921;-89
2023/07/03 21:36:21;;;;;;;;;;;;;;;;;;5556349;22;19910;-88
2023/07/03 21:38:47;;;;;;;;;;;;;;;;;;5002802;28;19910;-89
2023/07/03 21:46:21;;;;;;;;;;;;;;;;;;5423778;22;19992;-88
2023/07/03 21:49:06;;;;;;;;;;;;;;;;;;5004184;28;20036;-87
2023/07/03 21:51:41;;;;;;;;;;;;;;;;;;5021764;28;19922;-89
2023/07/03 21:54:10;;;;;;;;;;;;;;;;;;5029138;28;19941;-88
